Time;durP1;ratioP1;P1;durP2;ratioP2;P2;SDS_P1;SDS_P2;PMS_P1;PMS_P2;Temp;Humidity;BMP_temperature;BMP_pressure;BME280_temperature;BME280_humidity;BME280_pressure;Samples;Min_cycle;Max_cycle;Signal;HPM_P1;HPM_P2
2021/05/22 00:01:30;;;;;;;16.88;10.93;;;13.30;91.20;;;;;;5036772;28;20014;-77
2021/05/22 00:03:56;;;;;;;17.55;12.13;;;13.30;91.30;;;;;;5035675;28;20075;-77
2021/05/22 00:06:22;;;;;;;20.77;13.68;;;13.30;91.40;;;;;;5036785;28;20475;-76
2021/05/22 00:08:48;;;;;;;17.63;12.30;;;13.20;91.30;;;;;;5035433;28;20164;-77
2021/05/22 00:11:14;;;;;;;18.58;13.32;;;13.20;91.30;;;;;;5036785;28;20104;-77
2021/05/22 00:13:40;;;;;;;19.95;13.52;;;13.20;91.40;;;;;;5040049;28;20048;-77
2021/05/22 00:16:05;;;;;;;23.10;13.93;;;13.20;91.30;;;;;;5056302;28;20356;-77
2021/05/22 00:18:31;;;;;;;17.98;12.98;;;13.20;91.30;;;;;;5056616;28;20025;-77
2021/05/22 00:20:57;;;;;;;20.80;13.25;;;13.30;91.20;;;;;;5056074;28;20029;-77
2021/05/22 00:23:23;;;;;;;20.05;12.95;;;13.20;91.20;;;;;;5055573;28;20102;-77
2021/05/22 00:25:49;;;;;;;19.30;11.70;;;13.10;91.30;;;;;;5056475;28;20467;-77
2021/05/22 00:28:15;;;;;;;18.70;11.75;;;13.10;91.30;;;;;;5056409;28;20071;-77
2021/05/22 00:30:40;;;;;;;16.45;11.52;;;13.10;91.40;;;;;;5056377;28;20028;-77
2021/05/22 00:33:06;;;;;;;15.30;10.50;;;13.10;91.30;;;;;;5055694;28;20037;-77
2021/05/22 00:35:32;;;;;;;18.13;11.23;;;13.00;91.40;;;;;;5057012;28;20063;-77
2021/05/22 00:37:57;;;;;;;18.27;11.15;;;13.00;91.30;;;;;;5056069;28;20486;-77
2021/05/22 00:40:23;;;;;;;16.50;10.73;;;13.00;91.40;;;;;;5056157;28;20017;-77
2021/05/22 00:42:49;;;;;;;14.93;9.07;;;13.00;91.50;;;;;;5045099;28;20029;-77
2021/05/22 00:45:19;;;;;;;12.25;8.15;;;12.90;91.50;;;;;;5036214;28;20132;-77
2021/05/22 00:47:50;;;;;;;14.00;7.70;;;12.90;91.50;;;;;;5034800;28;20029;-77
2021/05/22 00:50:25;;;;;;;13.25;7.97;;;12.90;91.50;;;;;;5034802;28;20134;-77
2021/05/22 00:52:51;;;;;;;14.32;7.22;;;12.90;91.50;;;;;;5036163;28;20112;-77
2021/05/22 00:55:18;;;;;;;10.48;6.75;;;12.90;91.50;;;;;;5034631;28;20052;-77
2021/05/22 00:57:44;;;;;;;9.23;6.55;;;12.90;91.50;;;;;;5034650;28;20032;-77
2021/05/22 01:00:14;;;;;;;10.63;6.63;;;12.90;91.50;;;;;;5035830;28;20025;-77
2021/05/22 01:02:41;;;;;;;11.13;6.55;;;12.90;91.40;;;;;;5035905;28;20475;-77
2021/05/22 01:05:07;;;;;;;11.30;6.93;;;12.90;91.40;;;;;;5034611;28;20036;-77
2021/05/22 01:07:33;;;;;;;10.52;6.47;;;12.90;91.40;;;;;;5034413;28;20029;-77
2021/05/22 01:10:01;;;;;;;9.18;6.25;;;12.80;91.40;;;;;;5049233;28;20029;-77
2021/05/22 01:12:33;;;;;;;8.68;6.20;;;12.80;91.40;;;;;;5055465;28;20048;-77
2021/05/22 01:15:06;;;;;;;10.57;6.55;;;12.80;91.40;;;;;;5055536;28;20041;-77
2021/05/22 01:17:35;;;;;;;9.82;6.78;;;12.90;91.40;;;;;;5055796;28;20021;-77
2021/05/22 01:20:04;;;;;;;8.07;6.50;;;12.80;91.40;;;;;;5034979;28;20475;-76
2021/05/22 01:22:41;;;;;;;8.85;6.85;;;12.80;91.40;;;;;;5035470;28;20022;-76
2021/05/22 01:25:40;;;;;;;9.25;6.80;;;12.80;91.40;;;;;;5035459;28;20026;-76
2021/05/22 01:28:10;;;;;;;9.15;6.53;;;12.80;91.30;;;;;;5043790;28;20022;-76
2021/05/22 01:30:36;;;;;;;11.70;7.20;;;12.80;91.20;;;;;;5035476;28;20064;-76
2021/05/22 01:33:03;;;;;;;11.52;7.07;;;12.80;91.30;;;;;;5037020;28;20487;-76
2021/05/22 01:35:29;;;;;;;9.82;7.22;;;12.70;91.30;;;;;;5049800;28;20463;-76
2021/05/22 01:37:55;;;;;;;11.55;7.40;;;12.70;91.40;;;;;;5053481;28;20055;-77
2021/05/22 01:40:21;;;;;;;10.43;7.32;;;12.70;91.40;;;;;;5055334;28;20104;-77
2021/05/22 01:42:47;;;;;;;9.57;6.70;;;12.70;91.30;;;;;;5046319;28;20041;-76
2021/05/22 01:45:19;;;;;;;9.30;6.78;;;12.70;91.40;;;;;;5035014;28;20021;-76
2021/05/22 01:47:47;;;;;;;8.63;6.80;;;12.60;91.40;;;;;;5043680;28;20154;-76
2021/05/22 01:50:15;;;;;;;8.55;6.28;;;12.60;91.40;;;;;;5055204;28;20055;-77
2021/05/22 01:52:43;;;;;;;9.60;6.82;;;12.70;91.40;;;;;;5048057;28;20053;-77
2021/05/22 01:55:11;;;;;;;10.90;6.15;;;12.60;91.40;;;;;;5033615;28;20025;-77
2021/05/22 01:57:39;;;;;;;11.23;6.80;;;12.60;91.50;;;;;;5035073;28;20072;-77
2021/05/22 02:00:06;;;;;;;9.45;6.50;;;12.50;91.40;;;;;;5035105;28;20056;-77
2021/05/22 02:02:33;;;;;;;10.23;7.00;;;12.50;91.50;;;;;;5034775;28;20030;-77
2021/05/22 02:05:01;;;;;;;9.75;6.57;;;12.50;91.60;;;;;;5034569;28;20052;-76
2021/05/22 02:07:29;;;;;;;8.93;6.82;;;12.50;91.60;;;;;;5048988;28;20021;-77
2021/05/22 02:09:57;;;;;;;9.80;6.47;;;12.50;91.50;;;;;;5034576;28;20022;-77
2021/05/22 02:12:24;;;;;;;12.73;6.68;;;12.50;91.50;;;;;;5036062;28;20022;-77
2021/05/22 02:14:52;;;;;;;9.07;6.90;;;12.50;91.60;;;;;;5054188;28;20044;-77
2021/05/22 02:17:23;;;;;;;11.93;7.18;;;12.50;91.60;;;;;;5054977;28;20021;-77
2021/05/22 02:19:51;;;;;;;9.40;6.72;;;12.50;91.60;;;;;;5036653;28;20379;-77
2021/05/22 02:22:21;;;;;;;9.02;6.78;;;12.50;91.50;;;;;;5033844;28;20108;-77
2021/05/22 02:24:49;;;;;;;10.27;7.35;;;12.40;91.60;;;;;;5034389;28;20040;-77
2021/05/22 02:27:15;;;;;;;10.13;7.07;;;12.40;91.70;;;;;;5034502;28;20052;-77
2021/05/22 02:29:44;;;;;;;10.07;6.32;;;12.40;91.70;;;;;;5047857;28;20383;-77
2021/05/22 02:32:10;;;;;;;13.63;7.22;;;12.40;91.80;;;;;;5054149;28;20029;-77
2021/05/22 02:34:56;;;;;;;9.15;6.80;;;12.40;91.80;;;;;;5053959;28;20489;-77
2021/05/22 02:37:27;;;;;;;11.88;6.78;;;12.40;91.90;;;;;;5054166;28;20025;-78
2021/05/22 02:39:56;;;;;;;10.13;6.32;;;12.40;91.90;;;;;;5053626;28;20352;-77
2021/05/22 02:42:23;;;;;;;11.05;6.57;;;12.40;92.00;;;;;;5053995;28;20021;-77
2021/05/22 02:44:52;;;;;;;10.32;7.05;;;12.30;92.00;;;;;;5053881;28;20494;-77
2021/05/22 02:47:21;;;;;;;9.50;6.97;;;12.30;92.00;;;;;;5053637;28;20029;-77
2021/05/22 02:49:48;;;;;;;10.18;6.57;;;12.30;92.10;;;;;;5053670;28;20035;-77
2021/05/22 02:52:17;;;;;;;10.13;7.43;;;12.30;92.20;;;;;;5054105;28;20485;-77
2021/05/22 02:54:45;;;;;;;14.52;8.63;;;12.30;92.20;;;;;;5052489;28;20052;-77
2021/05/22 02:57:12;;;;;;;14.10;10.07;;;12.30;92.30;;;;;;5052484;28;20074;-77
2021/05/22 02:59:39;;;;;;;13.82;10.82;;;12.30;92.40;;;;;;5032549;28;20116;-77
2021/05/22 03:02:06;;;;;;;17.73;13.68;;;12.30;92.50;;;;;;5033863;28;20029;-77
2021/05/22 03:04:33;;;;;;;18.25;14.73;;;12.40;92.50;;;;;;5034012;28;20052;-76
2021/05/22 03:07:03;;;;;;;22.95;15.07;;;12.40;92.40;;;;;;5036192;28;20029;-77
2021/05/22 03:09:29;;;;;;;20.85;14.57;;;12.50;92.50;;;;;;5043045;28;20049;-77
2021/05/22 03:11:55;;;;;;;21.58;14.48;;;12.50;92.60;;;;;;5033737;28;20382;-77
2021/05/22 03:14:21;;;;;;;22.17;15.23;;;12.50;92.60;;;;;;5033373;28;20046;-77
2021/05/22 03:16:47;;;;;;;22.73;14.85;;;12.60;92.60;;;;;;5033921;28;20459;-77
2021/05/22 03:19:13;;;;;;;17.67;13.23;;;12.60;92.60;;;;;;5038856;28;20062;-77
2021/05/22 03:21:39;;;;;;;18.02;13.43;;;12.70;92.60;;;;;;5045156;28;20025;-77
2021/05/22 03:24:06;;;;;;;20.08;13.77;;;12.70;92.60;;;;;;5052879;28;20410;-77
2021/05/22 03:26:32;;;;;;;18.38;12.20;;;12.70;92.60;;;;;;5052492;28;20025;-77
2021/05/22 03:28:57;;;;;;;17.30;12.88;;;12.80;92.70;;;;;;5041918;28;20024;-77
2021/05/22 03:31:23;;;;;;;17.85;12.77;;;12.80;92.70;;;;;;5033357;28;20049;-77
2021/05/22 03:33:49;;;;;;;20.27;13.48;;;12.90;92.70;;;;;;5033311;28;20026;-77
2021/05/22 03:36:15;;;;;;;18.48;12.50;;;12.90;92.80;;;;;;5035579;28;20108;-77
2021/05/22 03:38:40;;;;;;;15.07;11.40;;;12.90;92.80;;;;;;5037241;28;20048;-77
2021/05/22 03:41:06;;;;;;;20.63;13.02;;;13.00;92.80;;;;;;5037239;28;20329;-77
2021/05/22 03:43:32;;;;;;;16.48;12.20;;;13.00;92.90;;;;;;5037242;28;20029;-77
2021/05/22 03:45:58;;;;;;;15.82;10.85;;;13.00;92.80;;;;;;5037354;28;20048;-77
2021/05/22 03:48:23;;;;;;;16.63;11.25;;;13.10;92.90;;;;;;5036085;28;20025;-77
2021/05/22 03:50:49;;;;;;;15.82;11.10;;;13.10;93.00;;;;;;5035985;28;20426;-77
2021/05/22 03:53:15;;;;;;;13.75;10.77;;;13.10;93.00;;;;;;5035605;28;20037;-77
2021/05/22 03:55:41;;;;;;;14.15;10.43;;;13.20;93.00;;;;;;5036216;28;20021;-77
2021/05/22 03:58:07;;;;;;;14.77;10.13;;;13.30;93.00;;;;;;5038724;28;20091;-77
2021/05/22 04:00:33;;;;;;;13.40;9.85;;;13.30;93.00;;;;;;5056932;28;20494;-77
2021/05/22 04:02:59;;;;;;;14.73;9.75;;;13.40;93.00;;;;;;5054285;28;20067;-77
2021/05/22 04:05:25;;;;;;;14.20;10.05;;;13.50;93.00;;;;;;5036918;28;20033;-77
2021/05/22 04:07:50;;;;;;;12.15;9.10;;;13.50;92.80;;;;;;5049223;28;20047;-77
2021/05/22 04:10:16;;;;;;;12.93;9.35;;;13.60;92.70;;;;;;5056798;28;20371;-78
2021/05/22 04:12:42;;;;;;;9.60;8.23;;;13.60;92.60;;;;;;5046590;28;20451;-77
2021/05/22 04:15:08;;;;;;;11.10;8.38;;;13.70;92.60;;;;;;5037055;28;20034;-78
2021/05/22 04:17:34;;;;;;;14.10;9.30;;;13.80;92.60;;;;;;5036591;28;20391;-78
2021/05/22 04:19:59;;;;;;;10.25;7.82;;;13.80;92.50;;;;;;5036871;28;20017;-78
2021/05/22 04:22:25;;;;;;;10.52;7.57;;;13.90;92.40;;;;;;5046396;28;20362;-78
2021/05/22 04:24:51;;;;;;;11.50;7.40;;;14.00;92.30;;;;;;5054924;28;20025;-79
2021/05/22 04:27:16;;;;;;;10.13;7.50;;;14.00;92.20;;;;;;5055225;28;20033;-79
2021/05/22 04:29:43;;;;;;;11.15;7.28;;;14.10;92.20;;;;;;5056000;28;20100;-78
2021/05/22 04:32:09;;;;;;;9.93;7.78;;;14.20;92.20;;;;;;5049261;28;20021;-78
2021/05/22 04:34:36;;;;;;;10.55;7.55;;;14.30;92.20;;;;;;5035081;28;20032;-78
2021/05/22 04:37:02;;;;;;;10.68;7.00;;;14.30;92.10;;;;;;5034878;28;20026;-78
2021/05/22 04:39:28;;;;;;;7.47;6.35;;;14.40;92.20;;;;;;5048037;28;20032;-80
2021/05/22 04:41:53;;;;;;;9.68;6.95;;;14.40;92.20;;;;;;5054746;28;20052;-78
2021/05/22 04:44:19;;;;;;;8.15;6.90;;;14.50;92.10;;;;;;5054923;28;20074;-78
2021/05/22 04:46:45;;;;;;;7.70;6.47;;;14.60;92.00;;;;;;5038859;28;20063;-78
2021/05/22 04:49:10;;;;;;;9.18;6.78;;;14.60;92.00;;;;;;5046418;28;20024;-77
2021/05/22 04:51:36;;;;;;;7.00;5.68;;;14.70;92.00;;;;;;5052587;28;20052;-77
2021/05/22 04:54:08;;;;;;;7.05;6.18;;;14.80;92.00;;;;;;5035848;28;20032;-78
2021/05/22 04:56:34;;;;;;;8.82;7.03;;;14.90;91.80;;;;;;5034706;28;20060;-77
2021/05/22 04:59:00;;;;;;;14.18;8.13;;;15.00;91.80;;;;;;5045086;28;20029;-78
2021/05/22 05:01:29;;;;;;;11.05;7.45;;;15.10;91.70;;;;;;5055852;28;20025;-78
2021/05/22 05:03:56;;;;;;;17.48;7.85;;;15.20;91.60;;;;;;5056110;28;20029;-78
2021/05/22 05:06:22;;;;;;;11.50;8.32;;;15.30;91.40;;;;;;5055902;28;20049;-78
2021/05/22 05:08:48;;;;;;;15.70;7.90;;;15.40;91.30;;;;;;5052030;28;20126;-78
2021/05/22 05:11:13;;;;;;;11.68;8.48;;;15.40;91.20;;;;;;5035618;28;20164;-78
2021/05/22 05:13:39;;;;;;;10.25;6.82;;;15.50;91.20;;;;;;5047587;28;20128;-78
2021/05/22 05:16:05;;;;;;;11.57;7.65;;;15.50;91.10;;;;;;5036048;28;20022;-77
2021/05/22 05:18:31;;;;;;;9.95;7.30;;;15.60;91.00;;;;;;5035244;28;20060;-79
2021/05/22 05:20:57;;;;;;;10.68;7.57;;;15.70;90.80;;;;;;5049920;28;20037;-78
2021/05/22 05:23:24;;;;;;;12.50;7.10;;;15.70;90.80;;;;;;5044010;28;20029;-79
2021/05/22 05:25:52;;;;;;;10.95;7.85;;;15.70;90.60;;;;;;5052620;28;20052;-80
2021/05/22 05:28:20;;;;;;;8.00;6.35;;;15.80;90.50;;;;;;5056130;28;20032;-79
2021/05/22 05:30:46;;;;;;;12.40;6.53;;;15.80;90.30;;;;;;5045487;28;20489;-79
2021/05/22 05:33:13;;;;;;;8.32;5.60;;;15.90;90.40;;;;;;5035077;28;20061;-80
2021/05/22 05:35:38;;;;;;;6.07;5.15;;;15.90;90.20;;;;;;5017253;28;20040;-80
2021/05/22 05:38:04;;;;;;;5.47;4.07;;;16.00;90.00;;;;;;5042957;28;20522;-81
2021/05/22 05:40:30;;;;;;;4.13;3.70;;;16.00;89.20;;;;;;5053388;28;20434;-83
2021/05/22 05:42:56;;;;;;;5.63;4.05;;;16.10;88.80;;;;;;5040029;28;20025;-80
2021/05/22 05:45:23;;;;;;;5.03;4.00;;;16.20;88.60;;;;;;5034868;28;20026;-82
2021/05/22 05:47:51;;;;;;;8.48;5.13;;;16.30;88.40;;;;;;5036266;28;20033;-80
2021/05/22 05:50:17;;;;;;;6.97;4.05;;;16.30;88.50;;;;;;5034962;28;20029;-80
2021/05/22 05:52:43;;;;;;;4.57;4.10;;;16.40;88.40;;;;;;5034692;28;20430;-80
2021/05/22 05:55:09;;;;;;;6.90;4.25;;;16.40;88.50;;;;;;5046457;28;20540;-80
2021/05/22 05:57:34;;;;;;;6.53;3.83;;;16.40;87.70;;;;;;5052974;28;20561;-81
2021/05/22 06:00:03;;;;;;;6.80;5.00;;;16.50;87.20;;;;;;5054770;28;20032;-81
2021/05/22 06:02:31;;;;;;;5.93;3.60;;;16.50;86.30;;;;;;5053213;28;20025;-78
2021/05/22 06:04:57;;;;;;;5.35;3.80;;;16.60;86.10;;;;;;5054639;28;20039;-79
2021/05/22 06:07:23;;;;;;;6.35;3.38;;;16.70;85.80;;;;;;5051216;28;20059;-79
2021/05/22 06:09:50;;;;;;;4.53;3.42;;;16.70;85.50;;;;;;5034391;28;20075;-75
2021/05/22 06:12:16;;;;;;;5.10;3.83;;;16.80;84.80;;;;;;5046360;28;20041;-77
2021/05/22 06:14:48;;;;;;;17.25;8.70;;;16.80;84.30;;;;;;5045279;28;20041;-76
2021/05/22 06:17:15;;;;;;;11.50;6.10;;;16.90;83.30;;;;;;5035243;28;20022;-79
2021/05/22 06:19:42;;;;;;;7.18;4.68;;;16.90;83.40;;;;;;5034438;28;20365;-80
2021/05/22 06:22:08;;;;;;;8.95;5.70;;;17.00;83.40;;;;;;5032821;28;20029;-77
2021/05/22 06:24:34;;;;;;;12.07;6.88;;;17.00;83.10;;;;;;5032911;28;20037;-79
2021/05/22 06:27:00;;;;;;;11.20;7.10;;;17.10;82.70;;;;;;5016609;28;20082;-80
2021/05/22 06:29:26;;;;;;;9.63;6.50;;;17.10;83.30;;;;;;5034004;28;20064;-80
2021/05/22 06:31:52;;;;;;;27.13;14.05;;;17.20;84.10;;;;;;5035187;28;20033;-78
2021/05/22 06:34:18;;;;;;;24.85;13.00;;;17.20;83.80;;;;;;5052735;28;20021;-79
2021/05/22 06:36:43;;;;;;;22.23;12.43;;;17.30;84.00;;;;;;5052365;28;20052;-77
2021/05/22 06:39:09;;;;;;;22.60;11.77;;;17.30;82.70;;;;;;5052763;28;20017;-74
2021/05/22 06:41:35;;;;;;;22.50;12.50;;;17.40;81.10;;;;;;5051247;28;20032;-77
2021/05/22 06:44:00;;;;;;;24.45;11.45;;;17.50;78.60;;;;;;5051768;28;20029;-76
2021/05/22 06:48:53;;;;;;;22.27;9.27;;;17.60;77.30;;;;;;5033876;28;20021;-79
2021/05/22 06:51:20;;;;;;;79.70;34.40;;;17.60;76.00;;;;;;5036590;28;20017;-75
2021/05/22 06:53:46;;;;;;;129.82;47.45;;;17.70;76.50;;;;;;5034943;28;20028;-75
2021/05/22 06:56:11;;;;;;;328.58;119.32;;;17.70;76.70;;;;;;5042272;28;20440;-76
2021/05/22 06:58:37;;;;;;;123.40;42.72;;;17.70;75.30;;;;;;5046943;28;20498;-75
2021/05/22 07:01:03;;;;;;;50.17;20.15;;;17.80;73.60;;;;;;5049541;28;20065;-73
2021/05/22 07:03:29;;;;;;;103.82;34.25;;;17.90;72.80;;;;;;5046700;28;20102;-75
2021/05/22 07:05:57;;;;;;;43.78;16.67;;;17.90;72.60;;;;;;5054091;28;20079;-74
2021/05/22 07:08:24;;;;;;;30.85;12.43;;;18.00;72.50;;;;;;5047000;28;20071;-79
2021/05/22 07:10:51;;;;;;;21.48;9.48;;;18.00;71.20;;;;;;5047568;28;20092;-79
2021/05/22 07:13:16;;;;;;;24.67;10.43;;;18.00;71.00;;;;;;5052690;28;20136;-79
2021/05/22 07:15:42;;;;;;;18.02;9.07;;;18.10;70.20;;;;;;5052644;28;20109;-79
2021/05/22 07:18:08;;;;;;;25.42;10.48;;;18.10;70.40;;;;;;5051140;28;20052;-73
2021/05/22 07:20:33;;;;;;;22.15;9.43;;;18.10;69.00;;;;;;5053107;28;20035;-76
2021/05/22 07:22:59;;;;;;;17.80;8.38;;;18.10;70.80;;;;;;5034395;28;20026;-73
2021/05/22 07:25:25;;;;;;;18.23;8.20;;;18.20;69.50;;;;;;5031819;28;20798;-77
2021/05/22 07:27:53;;;;;;;20.52;9.50;;;18.20;69.80;;;;;;5044744;28;20021;-76
2021/05/22 07:30:19;;;;;;;20.52;9.32;;;18.30;68.80;;;;;;5053121;28;20028;-76
2021/05/22 07:32:46;;;;;;;19.90;9.52;;;18.30;68.10;;;;;;5051735;28;20520;-78
2021/05/22 07:35:14;;;;;;;8.80;5.25;;;18.30;68.20;;;;;;5051663;28;20029;-78
2021/05/22 07:37:41;;;;;;;3.63;2.92;;;18.30;68.10;;;;;;5015292;28;20026;-79
2021/05/22 07:40:09;;;;;;;2.47;2.28;;;18.30;66.70;;;;;;5032172;28;20025;-85
2021/05/22 07:42:35;;;;;;;3.20;2.30;;;18.30;66.20;;;;;;5033336;28;20041;-83
2021/05/22 07:45:01;;;;;;;2.30;2.00;;;18.30;64.90;;;;;;5032616;28;20042;-85
2021/05/22 07:47:27;;;;;;;2.97;2.28;;;18.40;62.00;;;;;;5033090;28;20493;-83
2021/05/22 07:49:52;;;;;;;68.95;21.02;;;18.40;60.70;;;;;;5033334;28;20029;-85
2021/05/22 07:52:19;;;;;;;17.52;7.93;;;18.50;60.10;;;;;;5038188;28;20044;-83
2021/05/22 07:54:47;;;;;;;34.95;11.23;;;18.60;60.10;;;;;;5051485;28;20029;-82
2021/05/22 07:57:15;;;;;;;8.00;3.28;;;18.60;60.50;;;;;;5045075;28;20021;-82
2021/05/22 07:59:40;;;;;;;6.60;3.55;;;18.70;58.70;;;;;;5033017;28;20418;-87
2021/05/22 08:02:07;;;;;;;4.82;2.03;;;18.70;59.40;;;;;;5033081;28;20086;-83
2021/05/22 08:04:35;;;;;;;2.85;2.03;;;18.70;59.50;;;;;;5038562;28;20095;-87
2021/05/22 08:07:01;;;;;;;10.90;1.73;;;18.80;59.00;;;;;;5032013;28;20104;-85
2021/05/22 08:09:27;;;;;;;2.40;1.27;;;18.80;58.00;;;;;;5032113;28;20063;-87
2021/05/22 08:11:53;;;;;;;1.83;1.30;;;18.90;57.40;;;;;;5033048;28;20030;-89
2021/05/22 08:14:19;;;;;;;1.73;1.63;;;18.80;57.10;;;;;;5037727;28;20487;-86
2021/05/22 08:16:45;;;;;;;16.40;7.20;;;18.90;56.60;;;;;;5050349;28;20071;-85
2021/05/22 08:19:12;;;;;;;13.88;5.13;;;18.80;56.90;;;;;;5033180;28;20075;-84
2021/05/22 08:21:39;;;;;;;4.05;2.60;;;18.80;56.70;;;;;;5017784;28;20091;-83
2021/05/22 08:24:06;;;;;;;5.80;2.80;;;18.80;56.50;;;;;;5036628;28;20025;-82
2021/05/22 08:26:31;;;;;;;2.08;1.67;;;18.80;55.70;;;;;;5036142;28;20364;-84
2021/05/22 08:28:57;;;;;;;1.50;1.40;;;18.70;55.50;;;;;;5036647;28;20029;-88
2021/05/22 08:31:23;;;;;;;1.50;1.40;;;18.80;55.50;;;;;;5035504;28;20095;-86
2021/05/22 08:33:49;;;;;;;4.15;1.50;;;18.80;55.10;;;;;;5036378;28;20026;-81
2021/05/22 08:36:16;;;;;;;1.52;1.35;;;18.80;55.00;;;;;;5036180;28;20071;-88
2021/05/22 08:38:43;;;;;;;1.27;1.17;;;18.80;54.40;;;;;;5036403;28;20018;-86
2021/05/22 08:41:08;;;;;;;1.00;1.00;;;18.80;53.60;;;;;;5035432;28;20029;-84
2021/05/22 08:43:35;;;;;;;1.05;1.05;;;18.80;53.50;;;;;;5036306;28;20028;-84
2021/05/22 08:46:00;;;;;;;10.43;4.93;;;18.80;53.40;;;;;;5052209;28;20482;-82
2021/05/22 08:48:26;;;;;;;4.88;3.30;;;18.80;53.30;;;;;;5056569;28;20080;-85
2021/05/22 08:50:53;;;;;;;1.90;1.70;;;18.80;53.10;;;;;;5056098;28;20025;-86
2021/05/22 08:53:19;;;;;;;3.92;2.22;;;18.90;52.50;;;;;;5056305;28;20364;-83
2021/05/22 08:55:44;;;;;;;1.17;1.08;;;18.90;52.40;;;;;;5055961;28;20017;-86
2021/05/22 08:58:11;;;;;;;1.65;1.30;;;18.90;52.00;;;;;;5056167;28;20083;-79
2021/05/22 09:00:39;;;;;;;0.68;0.68;;;18.90;51.70;;;;;;5056384;28;20025;-87
2021/05/22 09:03:10;;;;;;;1.73;1.10;;;19.00;51.40;;;;;;5056317;28;20074;-83
2021/05/22 09:05:38;;;;;;;1.20;1.02;;;19.00;51.10;;;;;;5055709;28;20032;-85
2021/05/22 09:08:11;;;;;;;0.90;0.90;;;19.00;51.70;;;;;;5056056;28;20024;-88
2021/05/22 09:10:43;;;;;;;1.80;0.75;;;19.00;51.80;;;;;;5054701;28;20542;-88
2021/05/22 09:13:14;;;;;;;2.33;0.80;;;19.00;50.70;;;;;;5055644;28;20099;-89
2021/05/22 09:15:42;;;;;;;1.65;0.88;;;19.00;50.50;;;;;;5055560;28;20018;-91
2021/05/22 09:18:14;;;;;;;2.15;0.70;;;19.00;50.30;;;;;;5055771;28;20024;-83
2021/05/22 09:20:43;;;;;;;1.02;1.02;;;19.10;50.20;;;;;;5054679;28;20139;-87
2021/05/22 09:23:14;;;;;;;1.45;1.17;;;19.10;50.90;;;;;;5055087;28;20410;-84
2021/05/22 09:25:42;;;;;;;2.67;1.20;;;19.10;51.10;;;;;;5054927;28;20107;-81
2021/05/22 09:28:09;;;;;;;6.45;1.48;;;19.10;52.30;;;;;;5053852;28;20028;-82
2021/05/22 09:30:38;;;;;;;1.50;1.40;;;19.10;51.50;;;;;;5053925;28;20029;-83
2021/05/22 09:33:11;;;;;;;2.22;1.38;;;19.10;52.00;;;;;;5054942;28;20817;-84
2021/05/22 09:35:36;;;;;;;3.13;1.40;;;19.10;52.30;;;;;;5055049;28;20033;-84
2021/05/22 09:38:02;;;;;;;1.52;1.42;;;19.10;52.30;;;;;;5040609;28;20036;-84
2021/05/22 09:40:31;;;;;;;1.63;1.52;;;19.10;52.10;;;;;;5035083;28;20024;-85
2021/05/22 09:42:58;;;;;;;2.67;1.75;;;19.20;51.10;;;;;;5035136;28;20025;-86
2021/05/22 09:45:30;;;;;;;2.85;1.73;;;19.20;51.20;;;;;;5035606;28;20030;-92
2021/05/22 09:47:59;;;;;;;1.73;1.60;;;19.30;51.20;;;;;;5035178;28;20025;-87
2021/05/22 09:50:37;;;;;;;2.97;1.95;;;19.40;51.70;;;;;;5033853;28;20024;-85
2021/05/22 09:53:21;;;;;;;2.30;2.13;;;19.40;52.10;;;;;;5048034;28;20018;-80
2021/05/22 09:56:08;;;;;;;2.85;2.35;;;19.40;52.40;;;;;;5043075;28;20033;-85
2021/05/22 09:58:35;;;;;;;3.08;2.70;;;19.40;52.60;;;;;;5040902;28;20025;-83
2021/05/22 10:01:01;;;;;;;3.08;2.78;;;19.40;52.70;;;;;;5047143;28;20125;-88
2021/05/22 10:03:26;;;;;;;21.13;7.80;;;19.40;52.60;;;;;;5053066;28;20056;-91
2021/05/22 10:05:52;;;;;;;73.85;25.67;;;19.50;52.90;;;;;;5051695;28;20032;-86
2021/05/22 10:08:21;;;;;;;54.47;25.77;;;19.50;52.80;;;;;;5035072;28;20033;-80
2021/05/22 10:10:49;;;;;;;16.77;9.10;;;19.50;52.60;;;;;;5033088;28;20459;-83
2021/05/22 10:13:19;;;;;;;7.15;5.13;;;19.60;51.80;;;;;;5051947;28;20075;-83
2021/05/22 10:15:47;;;;;;;6.03;3.83;;;19.60;52.30;;;;;;5053600;28;20025;-81
2021/05/22 10:18:16;;;;;;;3.58;2.78;;;19.60;52.40;;;;;;5046896;28;20105;-86
2021/05/22 10:20:43;;;;;;;3.85;3.03;;;19.60;52.00;;;;;;5036693;28;20025;-88
2021/05/22 10:23:10;;;;;;;3.13;2.42;;;19.70;52.30;;;;;;5036028;28;20025;-78
2021/05/22 10:25:37;;;;;;;2.95;2.70;;;19.70;52.90;;;;;;5040351;28;20028;-82
2021/05/22 10:28:04;;;;;;;3.40;2.45;;;19.70;53.00;;;;;;5046397;28;20025;-85
2021/05/22 10:30:31;;;;;;;3.53;2.15;;;19.80;52.70;;;;;;5034000;28;20379;-83
2021/05/22 10:33:00;;;;;;;4.57;2.22;;;19.90;52.00;;;;;;5048751;28;20025;-82
2021/05/22 10:35:26;;;;;;;3.60;2.27;;;19.90;51.40;;;;;;5052118;28;20133;-86
2021/05/22 10:37:53;;;;;;;5.43;2.20;;;19.90;51.50;;;;;;5053844;28;20087;-84
2021/05/22 10:40:22;;;;;;;3.45;2.75;;;19.90;51.40;;;;;;5051386;28;20113;-84
2021/05/22 10:42:49;;;;;;;4.53;2.58;;;19.90;50.80;;;;;;5033849;28;20018;-86
2021/05/22 10:45:32;;;;;;;2.53;2.33;;;20.00;51.20;;;;;;5050015;28;20112;-88
2021/05/22 10:48:01;;;;;;;3.97;2.17;;;20.00;51.70;;;;;;5053552;28;20082;-86
2021/05/22 10:50:40;;;;;;;2.20;2.00;;;20.10;52.30;;;;;;5034558;28;20091;-87
2021/05/22 10:53:33;;;;;;;6.45;3.75;;;20.10;51.60;;;;;;5032602;28;20083;-83
2021/05/22 10:56:13;;;;;;;9.45;5.13;;;20.20;50.80;;;;;;5037986;28;20048;-85
2021/05/22 10:59:09;;;;;;;4.45;3.35;;;20.20;50.70;;;;;;5052325;28;20021;-81
2021/05/22 11:01:35;;;;;;;2.70;2.50;;;20.20;50.70;;;;;;5050135;28;20037;-83
2021/05/22 11:07:15;;;;;;;3.80;2.35;;;20.20;50.10;;;;;;5053624;28;20449;-83
2021/05/22 11:09:42;;;;;;;3.00;2.40;;;20.30;49.60;;;;;;5035594;28;20036;-82
2021/05/22 11:12:12;;;;;;;3.05;2.40;;;20.30;50.20;;;;;;5051897;28;20029;-82
2021/05/22 11:14:42;;;;;;;2.60;2.40;;;20.30;50.50;;;;;;5033592;28;20053;-84
2021/05/22 11:17:23;;;;;;;3.00;2.20;;;20.40;49.90;;;;;;5032400;28;20025;-83
2021/05/22 11:20:04;;;;;;;4.78;2.58;;;20.50;50.20;;;;;;5041868;28;20478;-81
2021/05/22 11:22:41;;;;;;;6.03;2.53;;;20.50;50.40;;;;;;5051685;28;20472;-83
2021/05/22 11:25:17;;;;;;;3.42;2.70;;;20.50;50.00;;;;;;5047919;28;20060;-88
2021/05/22 11:27:54;;;;;;;7.60;5.57;;;20.60;49.70;;;;;;5035149;28;20033;-81
2021/05/22 11:30:43;;;;;;;4.80;3.70;;;20.70;49.10;;;;;;5053062;28;20021;-85
2021/05/22 11:33:29;;;;;;;4.47;3.28;;;20.80;49.90;;;;;;5053543;28;20025;-85
2021/05/22 11:35:57;;;;;;;3.00;2.55;;;20.90;49.90;;;;;;5053229;28;20029;-87
2021/05/22 11:38:29;;;;;;;3.88;2.60;;;21.00;50.20;;;;;;5052272;28;20031;-90
2021/05/22 11:40:56;;;;;;;2.53;2.33;;;21.10;50.50;;;;;;5052368;28;20710;-88
2021/05/22 11:43:31;;;;;;;4.30;2.10;;;21.30;50.30;;;;;;5053515;28;20096;-84
2021/05/22 11:46:04;;;;;;;2.40;2.20;;;21.50;50.60;;;;;;5053992;28;20360;-87
2021/05/22 11:48:44;;;;;;;1.88;1.77;;;21.60;50.00;;;;;;5052128;28;20502;-83
2021/05/22 11:51:24;;;;;;;2.65;2.00;;;21.80;49.80;;;;;;5053863;28;20025;-88
2021/05/22 11:53:53;;;;;;;2.45;1.75;;;22.00;49.90;;;;;;5053180;28;20051;-91
2021/05/22 11:56:20;;;;;;;2.27;2.03;;;22.30;50.00;;;;;;5054453;28;20056;-89
2021/05/22 11:58:48;;;;;;;2.97;1.80;;;23.00;49.40;;;;;;5046172;28;20212;-90
2021/05/22 12:01:17;;;;;;;4.05;3.20;;;24.10;47.80;;;;;;5036204;28;20021;-88
2021/05/22 12:03:54;;;;;;;6.35;3.95;;;25.40;46.90;;;;;;5037873;28;20120;-86
2021/05/22 12:06:34;;;;;;;3.38;3.08;;;26.60;45.40;;;;;;5036277;28;20037;-88
2021/05/22 12:09:16;;;;;;;2.55;1.67;;;27.20;43.40;;;;;;5037628;28;20022;-85
2021/05/22 12:12:02;;;;;;;2.83;1.58;;;27.30;42.60;;;;;;5037446;28;20022;-89
2021/05/22 12:14:45;;;;;;;1.70;1.60;;;27.00;40.60;;;;;;5036081;28;20049;-88
2021/05/22 12:17:15;;;;;;;1.60;1.40;;;26.90;41.20;;;;;;5037463;28;20356;-86
2021/05/22 12:19:46;;;;;;;2.83;1.48;;;27.20;42.20;;;;;;5034659;28;20021;-88
2021/05/22 12:22:13;;;;;;;1.20;1.10;;;28.20;41.90;;;;;;5035557;28;20104;-85
2021/05/22 12:24:53;;;;;;;5.50;5.00;;;29.30;41.60;;;;;;5055909;28;20470;-87
2021/05/22 12:27:19;;;;;;;2.75;2.55;;;30.30;40.10;;;;;;5047042;28;20434;-86
2021/05/22 12:29:50;;;;;;;2.60;1.90;;;31.20;40.00;;;;;;5041946;28;20025;-86
2021/05/22 12:32:16;;;;;;;3.10;1.65;;;32.00;38.10;;;;;;5043705;28;20029;-91
2021/05/22 12:34:42;;;;;;;1.45;1.35;;;32.60;37.80;;;;;;5036719;28;20079;-83
2021/05/22 12:37:10;;;;;;;2.90;1.30;;;33.10;37.00;;;;;;5036424;28;20418;-95
2021/05/22 12:39:41;;;;;;;2.25;1.15;;;33.40;36.30;;;;;;5036737;28;20467;-89
2021/05/22 12:42:13;;;;;;;3.70;1.95;;;33.70;35.80;;;;;;5035532;28;20446;-88
2021/05/22 12:44:38;;;;;;;2.75;1.67;;;33.80;35.60;;;;;;5053936;28;20029;-83
2021/05/22 12:47:04;;;;;;;8.10;5.43;;;33.80;35.30;;;;;;5046547;28;20022;-85
2021/05/22 12:49:32;;;;;;;5.78;2.83;;;33.80;35.10;;;;;;5043370;28;20029;-84
2021/05/22 12:52:12;;;;;;;2.30;1.98;;;34.00;35.10;;;;;;5055682;28;20464;-82